熊本空港の過去48時間の天気

熊本空港 (Kumamoto)

現在時刻: 7/16 15:46 JST (7/16 06:46 UTC) 以下の時間は現地時間です。

過去48時間のMETAR気象情報
時間 風向 風速(m/s) 視程 気温(℃) 湿度(%) 気圧(hPa) 天気現象
16 15:00 南西 4 10km以上 34 53 1012
16 14:00 西南西 3 10km以上 34 60 1012
16 13:00 3 10km以上 33 59 1013
16 12:00 不定 2 7000m 32 63 1013
16 11:44 西 3 7000m 32 67 1014
16 11:00 西 2 7000m 30 70 1014
16 10:00 2 7000m 30 70 1014
16 09:00 南西 2 7000m 28 79 1014
16 08:00 南西 2 7000m 28 84 1014
16 07:00 不定 1 7000m 27 100 1014
16 06:10 静穏 0 7000m 25 100 1014
15 21:00 南南西 3 10km以上 28 94 1013
15 20:00 南南西 2 10km以上 29 84 1012
15 19:00 南南西 3 10km以上 31 70 1012
15 18:00 3 10km以上 32 63 1011
15 17:00 南南西 3 10km以上 33 59 1011
15 16:00 南西 4 10km以上 33 63 1011
15 15:00 南西 3 10km以上 33 63 1012
15 14:00 南西 3 10km以上 33 67 1012
15 13:00 西南西 3 10km以上 32 71 1013
15 12:00 西南西 3 10km以上 32 71 1013
15 11:00 西南西 3 8000m 31 75 1013
15 10:00 不定 1 8000m 30 79 1013
15 09:00 西南西 2 7000m 29 84 1013
15 08:00 不定 1 8000m 28 94 1013
15 07:00 不定 1 5000m 26 100 1013 もや
15 06:10 北東 2 5000m 25 100 1012 もや
14 21:00 南南西 1 10km以上 27 100 1012
14 20:00 南南西 2 10km以上 29 79 1012
14 19:00 南南西 3 10km以上 30 75 1011
14 18:00 南南西 3 10km以上 31 66 1011
14 17:00 3 10km以上 32 63 1011
14 16:00 南南西 4 10km以上 33 59 1011
RJFT 160600Z 23007KT 190V260 9999 FEW035 34/23 Q1012
RJFT 160500Z 24005KT 200V300 9999 FEW035 34/25 Q1012
RJFT 160400Z VRB05KT 9999 FEW030 33/24 Q1013
RJFT 160300Z VRB03KT 7000 FEW030 32/24 Q1013
RJFT 160244Z 26006KT 200V290 7000 FEW030 32/25 Q1014 RMK 2CU030 A2994
RJFT 160200Z 27004KT 220V360 7000 FEW035 30/24 Q1014
RJFT 160100Z 18003KT 100V260 7000 FEW030 BKN/// 30/24 Q1014
RJFT 160000Z 23003KT 160V300 7000 FEW030 BKN/// 28/24 Q1014
RJFT 152300Z 22004KT 170V260 7000 NSC 28/25 Q1014
RJFT 152200Z VRB01KT 7000 NSC 27/27 Q1014
RJFT 152110Z 00000KT 7000 NSC 25/25 Q1014 RMK 1AC100 A2995
RJFT 151200Z 21005KT 9999 FEW040 28/27 Q1013
RJFT 151100Z 21004KT 9999 FEW040 29/26 Q1012
RJFT 151000Z 20006KT 9999 BKN040 31/25 Q1012
RJFT 150900Z 19006KT 160V220 9999 FEW050 32/24 Q1011
RJFT 150800Z 20006KT 160V240 9999 FEW050 33/24 Q1011
RJFT 150700Z 22007KT 190V260 9999 SCT050 33/25 Q1011
RJFT 150600Z 22005KT 130V300 9999 FEW040 33/25 Q1012
RJFT 150500Z 22005KT 180V260 9999 FEW030 33/26 Q1012
RJFT 150400Z 24006KT 180V270 9999 FEW025 32/26 Q1013
RJFT 150300Z 25006KT 210V290 9999 SCT025 32/26 Q1013
RJFT 150200Z 25005KT 220V300 8000 FEW020 SCT025 31/26 Q1013
RJFT 150100Z VRB02KT 8000 SCT020 30/26 Q1013
RJFT 150000Z 24004KT 160V310 7000 FEW020 29/26 Q1013
RJFT 142300Z VRB02KT 8000 FEW020 28/27 Q1013
RJFT 142200Z VRB02KT 5000 BR NSC 26/26 Q1013
RJFT 142110Z 05003KT 5000 BR NSC 25/25 Q1012 RMK A2991
RJFT 141200Z 20002KT 9999 BKN050 27/27 Q1012
RJFT 141100Z 20003KT 160V230 9999 BKN050 29/25 Q1012
RJFT 141000Z 20005KT 9999 FEW050 30/25 Q1011
RJFT 140900Z 20005KT 160V230 9999 FEW040 31/24 Q1011
RJFT 140800Z 19006KT 160V230 9999 FEW035 32/24 Q1011
RJFT 140700Z 21008KT 9999 SCT035 33/24 Q1011